createdAt,value
2019-02-19T00:00:45.720Z,4.4
2019-02-19T00:01:57.720Z,4.3
2019-02-19T00:03:09.907Z,4.6
2019-02-19T00:04:22.181Z,4.1
2019-02-19T00:05:34.278Z,4.3
2019-02-19T00:06:46.568Z,4.1
2019-02-19T00:07:58.719Z,4.2
2019-02-19T00:09:10.865Z,4.6
2019-02-19T00:10:23.173Z,4.1
2019-02-19T00:11:35.439Z,4.5
2019-02-19T00:12:47.572Z,4.1
2019-02-19T00:13:59.712Z,4
2019-02-19T00:15:11.961Z,4.1
2019-02-19T00:16:24.201Z,4.1
2019-02-19T00:17:36.293Z,4.2
2019-02-19T00:18:48.523Z,4.4
2019-02-19T00:20:00.622Z,3.7
2019-02-19T00:21:12.885Z,4.1
2019-02-19T00:22:25.099Z,4.2
2019-02-19T00:23:37.276Z,3.9
2019-02-19T00:24:49.528Z,3.7
2019-02-19T00:26:01.739Z,3.8
2019-02-19T00:27:13.853Z,3.9
2019-02-19T00:28:26.049Z,4
2019-02-19T00:29:38.240Z,4.2
2019-02-19T00:30:50.420Z,3.9
2019-02-19T00:32:02.643Z,3.7
2019-02-19T00:33:14.758Z,3.9
2019-02-19T00:34:27.054Z,3.7
2019-02-19T00:35:39.119Z,3.9
2019-02-19T00:36:51.391Z,3.8
2019-02-19T00:38:03.516Z,4
2019-02-19T00:39:15.799Z,3.8
2019-02-19T00:40:27.910Z,4
2019-02-19T00:41:40.204Z,4.3
2019-02-19T00:42:52.289Z,3.8
2019-02-19T00:44:04.551Z,3.9
2019-02-19T00:45:16.757Z,4.1
2019-02-19T00:46:29.012Z,3.8
2019-02-19T00:47:41.134Z,3.7
2019-02-19T00:48:53.263Z,3.7
2019-02-19T00:50:05.519Z,3.5
2019-02-19T00:51:17.680Z,3.8
2019-02-19T00:52:29.834Z,3.6
2019-02-19T00:53:42.052Z,3.4
2019-02-19T00:54:54.387Z,3.9
2019-02-19T00:56:06.513Z,3.4
2019-02-19T00:57:18.605Z,3.7
2019-02-19T00:58:31.890Z,3.4
2019-02-19T00:59:43.061Z,3.3
2019-02-19T01:00:55.201Z,3.7
2019-02-19T01:02:07.483Z,3.4
2019-02-19T01:03:19.670Z,3.5
2019-02-19T01:04:31.861Z,3.5
2019-02-19T01:05:43.964Z,3.6
2019-02-19T01:06:56.220Z,3.2
2019-02-19T01:08:08.368Z,3.6
2019-02-19T01:09:20.547Z,3.4
2019-02-19T01:10:32.841Z,3.4
2019-02-19T01:11:48.194Z,3.6
2019-02-19T01:12:59.148Z,3.6
2019-02-19T01:14:09.386Z,3.4
2019-02-19T01:15:21.542Z,3.6
2019-02-19T01:16:33.703Z,3.5
2019-02-19T01:17:45.983Z,3.4
2019-02-19T01:18:58.187Z,3.5
2019-02-19T01:20:10.320Z,3.5
2019-02-19T01:21:22.570Z,3.7
2019-02-19T01:22:34.775Z,3.4
2019-02-19T01:23:46.874Z,3.6
2019-02-19T01:24:59.151Z,3.5
2019-02-19T01:26:11.334Z,3.7
2019-02-19T01:27:23.523Z,3.6
2019-02-19T01:28:35.738Z,3.6
2019-02-19T01:29:47.910Z,3.6
2019-02-19T01:31:00.038Z,3.2
2019-02-19T01:32:12.238Z,2.8
2019-02-19T01:33:24.499Z,3.3
2019-02-19T01:34:36.747Z,3.7
2019-02-19T01:35:48.843Z,3.1
2019-02-19T01:37:01.010Z,3.2
2019-02-19T01:38:13.355Z,3.5
2019-02-19T01:39:25.483Z,3.7
2019-02-19T01:40:37.578Z,3.3
2019-02-19T01:41:49.858Z,3.6
2019-02-19T01:43:01.973Z,3.5
2019-02-19T01:44:14.174Z,3.4
2019-02-19T01:45:26.369Z,3.6
2019-02-19T01:46:38.683Z,3.7
2019-02-19T01:47:50.823Z,3.8
2019-02-19T01:49:03.002Z,3.4
2019-02-19T01:50:15.144Z,3.1
2019-02-19T01:51:27.333Z,3.2
2019-02-19T01:52:39.617Z,3.2
2019-02-19T01:53:51.790Z,3
2019-02-19T01:55:03.905Z,3.1
2019-02-19T01:56:16.167Z,3.4
2019-02-19T01:57:28.391Z,3.4
2019-02-19T01:58:40.504Z,3.7
2019-02-19T01:59:52.780Z,3.3
2019-02-19T02:01:04.986Z,3.8
2019-02-19T02:02:17.069Z,3.6
2019-02-19T02:03:29.328Z,3.8
2019-02-19T02:04:41.574Z,3.6
2019-02-19T02:05:53.725Z,3.5
2019-02-19T02:07:05.887Z,3.7
2019-02-19T02:08:18.133Z,3.9
2019-02-19T02:09:30.304Z,3.8
2019-02-19T02:10:42.597Z,3.9
2019-02-19T02:11:54.625Z,3.7
2019-02-19T02:13:06.894Z,4
2019-02-19T02:14:19.075Z,3.6
2019-02-19T02:15:31.348Z,3.6
2019-02-19T02:16:47.136Z,3.8
2019-02-19T02:17:55.584Z,3.7
2019-02-19T02:19:07.868Z,3.9
2019-02-19T02:20:20.074Z,3.5
2019-02-19T02:21:32.242Z,4.2
2019-02-19T02:22:44.560Z,4
2019-02-19T02:23:56.644Z,4.3
2019-02-19T02:25:08.824Z,3.8
2019-02-19T02:26:20.962Z,4.4
2019-02-19T02:27:33.150Z,3.9
2019-02-19T02:28:45.435Z,4.1
2019-02-19T02:29:57.548Z,3.9
2019-02-19T02:31:09.803Z,4.2
2019-02-19T02:32:21.922Z,4
2019-02-19T02:33:34.192Z,4.1
2019-02-19T02:34:46.520Z,3.9
2019-02-19T02:35:58.525Z,4.1
2019-02-19T02:37:10.805Z,4.3
2019-02-19T02:38:22.986Z,3.9
2019-02-19T02:39:35.174Z,4.1
2019-02-19T02:40:47.426Z,4.4
2019-02-19T02:41:59.561Z,4.9
2019-02-19T02:43:11.798Z,4.9
2019-02-19T02:44:23.879Z,4.9
2019-02-19T02:45:36.076Z,5
2019-02-19T02:46:52.734Z,5.4
2019-02-19T02:48:00.467Z,5.1
2019-02-19T02:49:12.653Z,6
2019-02-19T02:50:24.979Z,5.9
2019-02-19T02:51:37.292Z,5.9
2019-02-19T02:52:49.253Z,6.4
2019-02-19T02:54:01.444Z,6.1
2019-02-19T02:55:13.722Z,6.3
2019-02-19T02:56:25.936Z,6.2
2019-02-19T02:57:38.239Z,6.7
2019-02-19T02:58:50.313Z,6.9
2019-02-19T03:00:02.565Z,6.7
2019-02-19T03:01:14.670Z,7
2019-02-19T03:02:30.905Z,7.9
2019-02-19T03:03:39.084Z,7.2
2019-02-19T03:04:51.194Z,7.6
2019-02-19T03:06:03.468Z,7.3
2019-02-19T03:07:15.739Z,7.4
2019-02-19T03:08:27.887Z,8.4
2019-02-19T03:09:39.975Z,7.9
2019-02-19T03:10:52.267Z,7.9
2019-02-19T03:12:04.378Z,8.2
2019-02-19T03:13:16.554Z,8
2019-02-19T03:14:28.818Z,8.1
2019-02-19T03:15:40.954Z,8
2019-02-19T03:16:53.236Z,8.3
2019-02-19T03:18:05.361Z,8.8
2019-02-19T03:19:17.548Z,8.6
2019-02-19T03:20:29.752Z,8.6
2019-02-19T03:21:41.926Z,8.7
2019-02-19T03:22:54.293Z,9.4
2019-02-19T03:24:06.420Z,8.3
2019-02-19T03:25:18.598Z,8.1
2019-02-19T03:26:30.831Z,8.8
2019-02-19T03:27:43.003Z,8.4
2019-02-19T03:28:55.098Z,8.7
2019-02-19T03:30:07.319Z,9
2019-02-19T03:31:19.507Z,8.9
2019-02-19T03:32:31.701Z,9
2019-02-19T03:33:43.935Z,9.6
2019-02-19T03:34:56.198Z,9.2
2019-02-19T03:36:08.361Z,9.6
2019-02-19T03:37:20.557Z,9.8
2019-02-19T03:38:32.770Z,10
2019-02-19T03:39:44.880Z,9.7
2019-02-19T03:40:57.152Z,9.6
2019-02-19T03:42:09.349Z,9.7
2019-02-19T03:43:21.523Z,9
2019-02-19T03:44:33.749Z,10
2019-02-19T03:45:45.886Z,10.2
2019-02-19T03:46:58.220Z,9.9
2019-02-19T03:48:10.294Z,10.7
2019-02-19T03:49:22.594Z,10.1
2019-02-19T03:50:34.694Z,10.6
2019-02-19T03:51:46.878Z,9.9
2019-02-19T03:52:59.001Z,10.6
2019-02-19T03:54:11.304Z,10.9
2019-02-19T03:55:23.475Z,10.6
2019-02-19T03:56:35.599Z,11.6
2019-02-19T03:57:47.925Z,11.5
2019-02-19T03:59:00.154Z,11.2
2019-02-19T04:00:12.236Z,10.9
2019-02-19T04:01:24.384Z,11.2
2019-02-19T04:02:36.649Z,11.4
2019-02-19T04:03:48.854Z,11.4
2019-02-19T04:05:00.958Z,11.5
2019-02-19T04:06:13.152Z,11.9
2019-02-19T04:07:25.497Z,10.8
2019-02-19T04:08:37.566Z,11.8
2019-02-19T04:09:49.827Z,11.5
2019-02-19T04:11:02.049Z,12
2019-02-19T04:12:14.129Z,11.9
2019-02-19T04:13:26.324Z,11.8
2019-02-19T04:14:38.543Z,12.2
2019-02-19T04:15:50.718Z,12.4
2019-02-19T04:17:02.993Z,13
2019-02-19T04:18:15.175Z,12.7
2019-02-19T04:19:27.374Z,13
2019-02-19T04:20:39.502Z,13.2
2019-02-19T04:21:51.770Z,13.5
2019-02-19T04:23:03.997Z,13.8
2019-02-19T04:24:16.280Z,13.8
2019-02-19T04:25:28.275Z,14
2019-02-19T04:26:40.633Z,14.3
2019-02-19T04:27:52.745Z,14.9
2019-02-19T04:29:05.078Z,15.1
2019-02-19T04:30:17.139Z,14.7
2019-02-19T04:31:29.253Z,14.2
2019-02-19T04:32:41.437Z,15.1
2019-02-19T04:33:53.707Z,15.7
2019-02-19T04:35:05.926Z,16.3
2019-02-19T04:36:18.158Z,15.7
2019-02-19T04:37:30.345Z,16.5
2019-02-19T04:38:42.489Z,17.3
2019-02-19T04:39:54.717Z,17.3
2019-02-19T04:41:06.907Z,17.8
2019-02-19T04:42:19.024Z,17.3
2019-02-19T04:43:31.274Z,16.9
2019-02-19T04:44:43.392Z,17.1
2019-02-19T04:45:55.663Z,17.1
2019-02-19T04:47:07.908Z,16.3
2019-02-19T04:48:20.071Z,17.5
2019-02-19T04:49:32.181Z,17.5
2019-02-19T04:50:44.459Z,17.1
2019-02-19T04:51:56.648Z,16.9
2019-02-19T04:53:08.802Z,17.7
2019-02-19T04:54:20.960Z,18.4
2019-02-19T04:55:33.287Z,18.4
2019-02-19T04:56:45.387Z,18
2019-02-19T04:57:57.635Z,19.7
2019-02-19T04:59:09.840Z,19.1
2019-02-19T05:00:22.010Z,18.2
2019-02-19T05:01:34.255Z,20.2
2019-02-19T05:02:46.466Z,20.2
2019-02-19T05:03:58.530Z,20.8
2019-02-19T05:05:10.788Z,20.6
2019-02-19T05:06:22.982Z,20.5
2019-02-19T05:07:35.167Z,19.5
2019-02-19T05:09:59.589Z,19.9
2019-02-19T05:11:11.711Z,21.9
2019-02-19T05:12:23.972Z,22
2019-02-19T05:13:36.189Z,22.4
2019-02-19T05:14:48.303Z,22.9
2019-02-19T05:16:00.570Z,22.3
2019-02-19T05:17:12.876Z,22.2
2019-02-19T05:18:24.943Z,21.7
2019-02-19T05:19:37.079Z,22.4
2019-02-19T05:20:49.348Z,22.9
2019-02-19T05:22:01.536Z,23.7
2019-02-19T05:23:13.759Z,22.1
2019-02-19T05:24:25.844Z,24.5
2019-02-19T05:25:38.045Z,23.7
2019-02-19T05:26:50.249Z,24.3
2019-02-19T05:28:02.464Z,23.6
2019-02-19T05:29:14.627Z,24
2019-02-19T05:30:26.950Z,24.8
2019-02-19T05:31:39.193Z,23.1
2019-02-19T05:32:51.300Z,23.2
2019-02-19T05:34:03.487Z,22.7
2019-02-19T05:35:15.787Z,24.1
2019-02-19T05:36:27.797Z,22.8
2019-02-19T05:37:40.008Z,22.3
2019-02-19T05:38:52.217Z,22.5
2019-02-19T05:40:04.479Z,23.1
2019-02-19T05:41:16.565Z,23.4
2019-02-19T05:42:28.865Z,21.9
2019-02-19T05:43:41.053Z,22.4
2019-02-19T05:44:53.190Z,23.7
2019-02-19T05:46:05.354Z,22.9
2019-02-19T05:47:17.736Z,21.2
2019-02-19T05:48:29.759Z,21.3
2019-02-19T05:49:41.937Z,21.1
2019-02-19T05:50:54.201Z,22.6
2019-02-19T05:52:06.365Z,21.8
2019-02-19T05:53:18.642Z,21.4
2019-02-19T05:54:30.834Z,21.6
2019-02-19T05:55:43.020Z,21.8
2019-02-19T05:56:55.119Z,20.8
2019-02-19T05:58:07.312Z,20.9
2019-02-19T05:59:19.695Z,21.4
2019-02-19T06:00:31.797Z,21.8
2019-02-19T06:01:43.897Z,20.7
2019-02-19T06:02:56.178Z,20.4
2019-02-19T06:04:08.289Z,21.5
2019-02-19T06:05:20.500Z,21.5
2019-02-19T06:06:32.682Z,20.2
2019-02-19T06:07:44.867Z,19.7
2019-02-19T06:08:57.069Z,21.8
2019-02-19T06:10:09.339Z,19.8
2019-02-19T06:11:21.559Z,19.6
2019-02-19T06:12:33.670Z,20.3
2019-02-19T06:13:45.878Z,20.4
2019-02-19T06:14:58.145Z,20.3
2019-02-19T06:16:10.314Z,20.5
2019-02-19T06:17:22.433Z,20.7
2019-02-19T06:18:34.699Z,20
2019-02-19T06:19:46.908Z,20.6
2019-02-19T06:20:59.102Z,20.5
2019-02-19T06:22:11.289Z,20.8
2019-02-19T06:23:23.515Z,20.3
2019-02-19T06:24:35.622Z,21
2019-02-19T06:25:47.977Z,20.1
2019-02-19T06:26:59.995Z,20.1
2019-02-19T06:28:12.269Z,20.1
2019-02-19T06:29:24.383Z,20.3
2019-02-19T06:30:36.657Z,20.4
2019-02-19T06:31:48.793Z,20
2019-02-19T06:33:01.061Z,20.8
2019-02-19T06:34:13.344Z,20.4
2019-02-19T06:35:25.476Z,21.1
2019-02-19T06:36:37.557Z,21.7
2019-02-19T06:37:49.784Z,21.9
2019-02-19T06:39:01.955Z,20.3
2019-02-19T06:40:14.274Z,20.9
2019-02-19T06:41:26.489Z,21.5
2019-02-19T06:42:38.622Z,21.2
2019-02-19T06:43:51.695Z,20.3
2019-02-19T06:45:03.017Z,20.8
2019-02-19T06:46:15.217Z,21.8
2019-02-19T06:47:27.499Z,20.5
2019-02-19T06:48:39.508Z,19.9
2019-02-19T06:49:51.704Z,19.4
2019-02-19T06:51:03.927Z,20.2
2019-02-19T06:52:16.182Z,19
2019-02-19T06:53:28.371Z,19.6
2019-02-19T06:54:40.554Z,18.7
2019-02-19T06:55:52.689Z,18.9
2019-02-19T06:57:04.972Z,20.2
2019-02-19T06:58:17.080Z,18.1
2019-02-19T06:59:29.470Z,18.6
2019-02-19T07:00:41.625Z,18.5
2019-02-19T07:01:53.678Z,16.7
2019-02-19T07:03:05.871Z,17.5
2019-02-19T07:04:18.062Z,17.4
2019-02-19T07:05:30.330Z,18.1
2019-02-19T07:06:42.461Z,17.6
2019-02-19T07:07:54.644Z,17.8
2019-02-19T07:09:06.839Z,17.8
2019-02-19T07:10:19.033Z,18.8
2019-02-19T07:11:31.384Z,17.8
2019-02-19T07:12:43.476Z,18
2019-02-19T07:13:55.630Z,18.3
2019-02-19T07:15:07.819Z,18.4
2019-02-19T07:16:20.088Z,17.6
2019-02-19T07:17:32.202Z,17.7
2019-02-19T07:18:44.588Z,17.5
2019-02-19T07:19:56.668Z,17.3
2019-02-19T07:21:08.878Z,16.3
2019-02-19T07:22:21.003Z,16.8
2019-02-19T07:23:33.488Z,16.5
2019-02-19T07:24:45.474Z,17.2
2019-02-19T07:25:57.585Z,17.6
2019-02-19T07:27:09.933Z,16.7
2019-02-19T07:28:22.123Z,16.2
2019-02-19T07:29:34.169Z,17.1
2019-02-19T07:30:46.436Z,17
2019-02-19T07:31:58.650Z,16.8
2019-02-19T07:33:10.760Z,16.2
2019-02-19T07:34:23.155Z,16.4
2019-02-19T07:35:35.233Z,16.1
2019-02-19T07:36:47.361Z,16.3
2019-02-19T07:37:59.539Z,16.2
2019-02-19T07:39:11.829Z,16.2
2019-02-19T07:40:23.922Z,16.5
2019-02-19T07:41:36.164Z,15.7
2019-02-19T07:42:48.397Z,16.1
2019-02-19T07:44:00.649Z,16
2019-02-19T07:45:12.705Z,15
2019-02-19T07:46:24.985Z,14.6
2019-02-19T07:47:37.213Z,16.1
2019-02-19T07:48:49.393Z,14.8
2019-02-19T07:50:01.504Z,14.3
2019-02-19T07:51:13.765Z,14.1
2019-02-19T07:52:25.884Z,14.9
2019-02-19T07:53:38.255Z,14.4
2019-02-19T07:54:50.363Z,13.8
2019-02-19T07:56:02.593Z,14.4
2019-02-19T07:57:14.671Z,14.8
2019-02-19T07:58:26.932Z,14.5
2019-02-19T07:59:39.152Z,14.5
2019-02-19T08:00:51.481Z,14.6
2019-02-19T08:02:03.534Z,14.6
2019-02-19T08:03:15.732Z,13.9
2019-02-19T08:04:27.992Z,13.8
2019-02-19T08:05:40.265Z,13.4
2019-02-19T08:06:52.292Z,13.7
2019-02-19T08:08:04.535Z,14.3
2019-02-19T08:09:16.698Z,13.4
2019-02-19T08:10:29.004Z,13.8
2019-02-19T08:11:41.112Z,13.7
2019-02-19T08:12:53.208Z,14.2
2019-02-19T08:14:05.591Z,12.9
2019-02-19T08:15:17.588Z,13.6
2019-02-19T08:16:29.873Z,13.8
2019-02-19T08:17:46.194Z,13.7
2019-02-19T08:18:54.247Z,13.4
2019-02-19T08:20:06.396Z,13.6
2019-02-19T08:21:18.568Z,12.7
2019-02-19T08:22:30.988Z,12.7
2019-02-19T08:23:42.952Z,13.1
2019-02-19T08:24:55.179Z,12.7
2019-02-19T08:26:07.496Z,13.4
2019-02-19T08:27:19.619Z,12.7
2019-02-19T08:28:31.837Z,12.6
2019-02-19T08:29:43.927Z,12.8
2019-02-19T08:30:56.192Z,12.5
2019-02-19T08:32:08.367Z,12.2
2019-02-19T08:33:20.522Z,11.7
2019-02-19T08:34:32.737Z,12
2019-02-19T08:35:45.073Z,11.8
2019-02-19T08:36:57.274Z,11.5
2019-02-19T08:38:09.393Z,11.2
2019-02-19T08:39:21.670Z,10.9
2019-02-19T08:40:33.790Z,12
2019-02-19T08:41:45.990Z,11.7
2019-02-19T08:42:58.081Z,10.9
2019-02-19T08:44:10.362Z,11.4
2019-02-19T08:45:22.498Z,12
2019-02-19T08:46:34.714Z,11.2
2019-02-19T08:47:47.036Z,11.5
2019-02-19T08:48:59.226Z,10.9
2019-02-19T08:50:11.464Z,11.1
2019-02-19T08:51:23.570Z,10.4
2019-02-19T08:52:35.804Z,11.2
2019-02-19T08:53:47.914Z,10.7
2019-02-19T08:55:00.143Z,10.8
2019-02-19T08:56:12.242Z,10.7
2019-02-19T08:57:24.520Z,11.1
2019-02-19T08:58:36.703Z,10.5
2019-02-19T08:59:48.822Z,10.9
2019-02-19T09:01:01.011Z,10.1
2019-02-19T09:02:13.233Z,10.6
2019-02-19T09:03:25.408Z,10.3
2019-02-19T09:04:37.681Z,10.8
2019-02-19T09:05:49.798Z,10.6
2019-02-19T09:07:02.065Z,10.3
2019-02-19T09:08:14.346Z,9.7
2019-02-19T09:09:26.383Z,10.3
2019-02-19T09:10:38.700Z,9.5
2019-02-19T09:11:50.906Z,10
2019-02-19T09:13:03.090Z,10.2
2019-02-19T09:14:15.256Z,10.9
2019-02-19T09:15:27.381Z,10.9
2019-02-19T09:16:39.613Z,10.1
2019-02-19T09:17:51.836Z,10.7
2019-02-19T09:19:03.954Z,10.7
2019-02-19T09:20:16.302Z,10
2019-02-19T09:21:28.335Z,10.4
2019-02-19T09:22:42.882Z,9.9
2019-02-19T09:23:52.895Z,10.4
2019-02-19T09:25:04.940Z,9.7
2019-02-19T09:26:17.115Z,10
2019-02-19T09:27:29.311Z,10.3
2019-02-19T09:28:41.654Z,10.5
2019-02-19T09:29:53.802Z,10.5
2019-02-19T09:31:06.016Z,9.7
2019-02-19T09:32:18.273Z,9.9
2019-02-19T09:33:30.376Z,10.2
2019-02-19T09:34:42.587Z,9.6
2019-02-19T09:35:54.870Z,10.3
2019-02-19T09:37:06.950Z,9.7
2019-02-19T09:38:19.154Z,9.1
2019-02-19T09:39:31.335Z,9.9
2019-02-19T09:40:43.720Z,10
2019-02-19T09:41:55.774Z,9.6
2019-02-19T09:43:07.862Z,9.5
2019-02-19T09:44:20.057Z,9.6
2019-02-19T09:45:32.378Z,9.1
2019-02-19T09:46:44.746Z,9.1
2019-02-19T09:47:56.752Z,9.1
2019-02-19T09:49:08.910Z,9
2019-02-19T09:50:21.252Z,8.5
2019-02-19T09:51:33.349Z,8.5
2019-02-19T09:52:45.476Z,8.1
2019-02-19T09:53:57.756Z,8.7
2019-02-19T09:55:09.851Z,8.1
2019-02-19T09:56:22.176Z,8.3
2019-02-19T09:57:34.235Z,8.2
2019-02-19T09:58:46.388Z,8.5
2019-02-19T09:59:58.683Z,8.3
2019-02-19T10:01:10.849Z,7.4
2019-02-19T10:02:22.970Z,8.2
2019-02-19T10:03:35.175Z,8.5
2019-02-19T10:04:47.483Z,7.4
2019-02-19T10:05:59.666Z,6.8
2019-02-19T10:07:11.780Z,8.1
2019-02-19T10:08:23.970Z,8
2019-02-19T10:09:36.373Z,6.9
2019-02-19T10:10:48.869Z,7.2
2019-02-19T10:12:00.617Z,6.7
2019-02-19T10:13:12.837Z,6.8
2019-02-19T10:14:24.971Z,6.6
2019-02-19T10:15:37.160Z,6.4
2019-02-19T10:16:50.310Z,7.4
2019-02-19T10:18:01.647Z,7.2
2019-02-19T10:19:13.725Z,6.3
2019-02-19T10:20:27.970Z,6.9
2019-02-19T10:21:38.307Z,6.8
2019-02-19T10:22:50.298Z,6.4
2019-02-19T10:24:02.696Z,5.8
2019-02-19T10:25:14.779Z,4.9
2019-02-19T10:26:26.988Z,4.9
2019-02-19T10:27:39.075Z,4.3
2019-02-19T10:28:51.459Z,3.8
2019-02-19T10:30:03.654Z,3.7
2019-02-19T10:31:15.735Z,3.3
2019-02-19T10:32:27.862Z,3.6
2019-02-19T10:33:40.073Z,3.5
2019-02-19T10:34:52.335Z,2.8
2019-02-19T10:36:04.555Z,3
2019-02-19T10:37:16.718Z,2.4
2019-02-19T10:38:28.900Z,2.7
2019-02-19T10:39:41.062Z,2.5
2019-02-19T10:40:53.327Z,2.6
2019-02-19T10:42:05.511Z,2.6
2019-02-19T10:43:17.618Z,2.3
2019-02-19T10:44:29.902Z,2.2
2019-02-19T10:45:42.095Z,2.4
2019-02-19T10:46:54.208Z,2.6
2019-02-19T10:48:06.508Z,2.5
2019-02-19T10:49:18.769Z,2.6
2019-02-19T10:50:30.879Z,2.7
2019-02-19T10:51:43.182Z,2.7
2019-02-19T10:52:55.268Z,2.4
2019-02-19T10:54:07.434Z,2.7
2019-02-19T10:55:19.625Z,3
2019-02-19T10:56:31.761Z,2.9
2019-02-19T10:57:44.052Z,2.9
2019-02-19T10:58:56.142Z,2.7
2019-02-19T11:00:08.441Z,2.8
2019-02-19T11:01:20.683Z,2.8
2019-02-19T11:02:32.740Z,3
2019-02-19T11:03:44.954Z,2.6
2019-02-19T11:04:57.207Z,3.2
2019-02-19T11:06:09.454Z,3.3
2019-02-19T11:07:21.555Z,3.3
2019-02-19T11:08:33.812Z,2.6
2019-02-19T11:09:46.073Z,2.8
2019-02-19T11:10:58.138Z,2.6
2019-02-19T11:12:10.366Z,2.7
2019-02-19T11:13:22.506Z,2.7
2019-02-19T11:14:34.698Z,2.7
2019-02-19T11:15:47.060Z,3.3
2019-02-19T11:16:59.176Z,3
2019-02-19T11:18:11.338Z,2.7
2019-02-19T11:19:23.469Z,2.6
2019-02-19T11:20:35.726Z,3.2
2019-02-19T11:21:47.971Z,2.6
2019-02-19T11:23:00.059Z,3.1
2019-02-19T11:24:12.332Z,2.9
2019-02-19T11:25:24.555Z,3.1
2019-02-19T11:26:36.670Z,2.9
2019-02-19T11:27:48.844Z,2.8
2019-02-19T11:29:01.142Z,2.6
2019-02-19T11:30:13.362Z,3
2019-02-19T11:31:25.422Z,2.5
2019-02-19T11:32:40.335Z,2.6
2019-02-19T11:33:53.445Z,2.7
2019-02-19T11:35:02.087Z,3.2
2019-02-19T11:36:14.342Z,2.9
2019-02-19T11:37:26.585Z,2.9
2019-02-19T11:38:38.596Z,2.6
2019-02-19T11:39:50.899Z,2.4
2019-02-19T11:41:03.026Z,2.2
2019-02-19T11:42:15.181Z,2.5
2019-02-19T11:43:30.343Z,2.5
2019-02-19T11:44:42.581Z,2.4
2019-02-19T11:45:51.836Z,2.2
2019-02-19T11:47:04.105Z,2.2
2019-02-19T11:48:16.470Z,2.5
2019-02-19T11:49:28.452Z,2.4
2019-02-19T11:50:40.555Z,2.4
2019-02-19T11:51:52.840Z,2.3
2019-02-19T11:53:04.936Z,2.1
2019-02-19T11:54:17.239Z,2.3
2019-02-19T11:55:29.328Z,2.3
2019-02-19T11:56:41.583Z,2.4
2019-02-19T11:57:53.725Z,2.3
2019-02-19T11:59:06.002Z,2.3
2019-02-19T12:00:18.253Z,2.4
2019-02-19T12:01:30.386Z,2.2
2019-02-19T12:02:42.484Z,2.4
2019-02-19T12:03:54.762Z,1.9
2019-02-19T12:05:06.963Z,2
2019-02-19T12:06:19.308Z,1.5
2019-02-19T12:07:31.288Z,2.1
2019-02-19T12:08:43.741Z,2.1
2019-02-19T12:09:55.643Z,2.1
2019-02-19T12:11:07.918Z,2
2019-02-19T12:12:20.221Z,2.3
2019-02-19T12:13:32.421Z,2.2
2019-02-19T12:14:44.412Z,2.4
2019-02-19T12:15:56.619Z,1.9
2019-02-19T12:17:08.915Z,2.2
2019-02-19T12:18:21.016Z,2
2019-02-19T12:19:33.286Z,2.3
2019-02-19T12:20:45.569Z,2.4
2019-02-19T12:21:57.575Z,2.3
2019-02-19T12:23:09.767Z,2.3
2019-02-19T12:24:22.048Z,2.1
2019-02-19T12:25:34.166Z,2.3
2019-02-19T12:26:46.481Z,2.3
2019-02-19T12:27:58.691Z,2.3
2019-02-19T12:29:10.991Z,2.1
2019-02-19T12:30:22.992Z,2.5
2019-02-19T12:31:35.202Z,2.1
2019-02-19T12:32:47.456Z,2.2
2019-02-19T12:33:59.634Z,2
2019-02-19T12:35:11.882Z,2.2
2019-02-19T12:36:24.070Z,2.1
2019-02-19T12:37:36.199Z,2
2019-02-19T12:38:49.915Z,2.6
2019-02-19T12:40:00.568Z,2.2
2019-02-19T12:41:12.773Z,2.4
2019-02-19T12:42:24.975Z,2.3
2019-02-19T12:43:37.061Z,2.4
2019-02-19T12:44:49.255Z,2.4
2019-02-19T12:46:01.478Z,2.1
2019-02-19T12:47:13.784Z,2.4
2019-02-19T12:48:25.930Z,2.5
2019-02-19T12:49:38.444Z,2.1
2019-02-19T12:50:50.285Z,2.1
2019-02-19T12:52:02.446Z,2.2
2019-02-19T12:53:14.776Z,2.1
2019-02-19T12:54:26.799Z,2.3
2019-02-19T12:55:38.991Z,2
2019-02-19T12:56:51.193Z,2.1
2019-02-19T12:58:03.412Z,2.2
2019-02-19T12:59:15.565Z,2.4
2019-02-19T13:00:27.974Z,2.1
2019-02-19T13:01:39.957Z,2.4
2019-02-19T13:02:52.337Z,2.2
2019-02-19T13:04:04.442Z,2.2
2019-02-19T13:05:16.607Z,2.3
2019-02-19T13:06:28.837Z,2.5
2019-02-19T13:07:40.918Z,2.1
2019-02-19T13:08:53.203Z,2.3
2019-02-19T13:10:05.397Z,2.1
2019-02-19T13:11:17.617Z,2.3
2019-02-19T13:12:29.887Z,2
2019-02-19T13:13:42.327Z,2.2
2019-02-19T13:14:54.192Z,2.1
2019-02-19T13:16:06.297Z,1.7
2019-02-19T13:17:18.710Z,1.8
2019-02-19T13:18:30.767Z,1.6
2019-02-19T13:19:42.857Z,1.6
2019-02-19T13:20:55.048Z,2
2019-02-19T13:22:07.249Z,1.9
2019-02-19T13:23:19.609Z,1.7
2019-02-19T13:24:31.799Z,2.2
2019-02-19T13:25:43.909Z,2
2019-02-19T13:26:56.019Z,2.1
2019-02-19T13:28:08.311Z,1.8
2019-02-19T13:29:20.499Z,1.8
2019-02-19T13:30:32.594Z,1.9
2019-02-19T13:31:44.795Z,2.1
2019-02-19T13:32:57.137Z,2.3
2019-02-19T13:34:09.295Z,2.1
2019-02-19T13:35:21.414Z,1.9
2019-02-19T13:36:33.737Z,2.5
2019-02-19T13:37:45.758Z,2.1
2019-02-19T13:38:57.949Z,1.7
2019-02-19T13:40:10.326Z,1.7
2019-02-19T13:41:22.363Z,2.1
2019-02-19T13:42:34.544Z,1.8
2019-02-19T13:43:46.742Z,2.2
2019-02-19T13:44:59.045Z,1.7
2019-02-19T13:46:11.290Z,2
2019-02-19T13:47:23.454Z,2.2
2019-02-19T13:48:35.608Z,1.6
2019-02-19T13:49:47.887Z,1.7
2019-02-19T13:50:59.922Z,1.7
2019-02-19T13:52:12.258Z,2
2019-02-19T13:53:24.355Z,1.8
2019-02-19T13:54:36.520Z,1.8
2019-02-19T13:55:48.744Z,1.8
2019-02-19T13:57:00.936Z,1.9
2019-02-19T13:58:13.061Z,2.1
2019-02-19T13:59:25.255Z,1.8
2019-02-19T14:00:37.537Z,1.8
2019-02-19T14:01:49.691Z,1.9
2019-02-19T14:03:01.829Z,1.7
2019-02-19T14:04:14.199Z,1.4
2019-02-19T14:05:26.385Z,1.7
2019-02-19T14:06:38.408Z,1.5
2019-02-19T14:07:50.685Z,1.5
2019-02-19T14:09:02.801Z,1.4
2019-02-19T14:10:15.035Z,1.6
2019-02-19T14:11:27.374Z,1.8
2019-02-19T14:12:39.479Z,1.5
2019-02-19T14:13:51.602Z,1.7
2019-02-19T14:15:03.836Z,1.6
2019-02-19T14:16:16.056Z,1.5
2019-02-19T14:17:28.281Z,2
2019-02-19T14:18:40.440Z,1.7
2019-02-19T14:19:52.551Z,1.7
2019-02-19T14:21:04.736Z,1.7
2019-02-19T14:22:17.129Z,1.4
2019-02-19T14:23:29.195Z,1.7
2019-02-19T14:24:42.759Z,1.7
2019-02-19T14:25:53.504Z,1.7
2019-02-19T14:27:05.895Z,2
2019-02-19T14:28:17.967Z,1.8
2019-02-19T14:29:30.275Z,1.9
2019-02-19T14:30:42.418Z,1.6
2019-02-19T14:31:54.556Z,1.9
2019-02-19T14:33:06.754Z,1.8
2019-02-19T14:34:18.910Z,1.7
2019-02-19T14:35:31.068Z,1.4
2019-02-19T14:36:43.452Z,1.7
2019-02-19T14:37:55.583Z,2.1
2019-02-19T14:39:07.656Z,1.9
2019-02-19T14:40:19.866Z,1.6
2019-02-19T14:41:32.060Z,1.9
2019-02-19T14:42:44.465Z,1.9
2019-02-19T14:44:01.156Z,1.8
2019-02-19T14:45:08.619Z,1.9
2019-02-19T14:46:20.889Z,1.8
2019-02-19T14:47:33.119Z,2
2019-02-19T14:48:45.306Z,1.7
2019-02-19T14:49:57.389Z,1.8
2019-02-19T14:51:13.145Z,1.5
2019-02-19T14:52:22.070Z,2.1
2019-02-19T14:53:33.966Z,1.9
2019-02-19T14:54:46.342Z,1.8
2019-02-19T14:55:58.432Z,2.1
2019-02-19T14:57:10.739Z,2.4
2019-02-19T14:58:22.818Z,1.7
2019-02-19T14:59:35.006Z,2
2019-02-19T15:00:47.340Z,2
2019-02-19T15:01:59.401Z,1.7
2019-02-19T15:03:11.738Z,1.8
2019-02-19T15:04:23.713Z,1.9
2019-02-19T15:05:36.101Z,2.1
2019-02-19T15:06:48.195Z,1.9
2019-02-19T15:08:00.293Z,1.9
2019-02-19T15:09:12.503Z,2
2019-02-19T15:10:24.694Z,1.9
2019-02-19T15:11:36.988Z,1.7
2019-02-19T15:12:49.255Z,1.7
2019-02-19T15:14:01.383Z,1.6
2019-02-19T15:15:13.561Z,2
2019-02-19T15:16:25.873Z,1.9
2019-02-19T15:17:38.036Z,1.8
2019-02-19T15:18:50.055Z,1.9
2019-02-19T15:20:03.174Z,2.1
2019-02-19T15:21:14.438Z,2.1
2019-02-19T15:22:26.634Z,1.9
2019-02-19T15:23:38.819Z,2.2
2019-02-19T15:24:51.104Z,1.8
2019-02-19T15:26:03.215Z,1.8
2019-02-19T15:27:15.403Z,2
2019-02-19T15:28:27.595Z,2.2
2019-02-19T15:29:39.896Z,2.1
2019-02-19T15:30:52.087Z,1.9
2019-02-19T15:32:04.180Z,2
2019-02-19T15:33:16.526Z,1.9
2019-02-19T15:34:28.570Z,2.2
2019-02-19T15:35:40.858Z,2.2
2019-02-19T15:36:53.055Z,2
2019-02-19T15:38:05.171Z,2.3
2019-02-19T15:39:17.491Z,2.3
2019-02-19T15:40:29.606Z,1.9
2019-02-19T15:41:41.844Z,2
2019-02-19T15:42:53.919Z,1.8
2019-02-19T15:44:06.146Z,2
2019-02-19T15:45:18.303Z,2.3
2019-02-19T15:46:30.532Z,2.4
2019-02-19T15:47:42.688Z,1.9
2019-02-19T15:48:54.986Z,2
2019-02-19T15:50:07.174Z,2.2
2019-02-19T15:51:19.277Z,2.2
2019-02-19T15:52:31.478Z,1.8
2019-02-19T15:53:43.672Z,2
2019-02-19T15:54:55.858Z,2.1
2019-02-19T15:56:08.145Z,2
2019-02-19T15:57:20.384Z,2.2
2019-02-19T15:58:32.563Z,2.2
2019-02-19T15:59:44.813Z,2.1
2019-02-19T16:00:57.007Z,2.3
2019-02-19T16:02:09.109Z,2.1
2019-02-19T16:03:21.338Z,2.4
2019-02-19T16:04:33.500Z,2.4
2019-02-19T16:05:45.690Z,2
2019-02-19T16:06:57.933Z,1.9
2019-02-19T16:08:10.081Z,2.7
2019-02-19T16:09:22.190Z,2.3
2019-02-19T16:10:34.386Z,2.7
2019-02-19T16:11:46.657Z,2.3
2019-02-19T16:12:58.897Z,2
2019-02-19T16:14:10.977Z,2
2019-02-19T16:15:23.258Z,1.9
2019-02-19T16:16:35.370Z,2.3
2019-02-19T16:17:47.598Z,1.8
2019-02-19T16:18:59.822Z,2
2019-02-19T16:20:11.959Z,2.3
2019-02-19T16:21:24.312Z,2
2019-02-19T16:22:36.324Z,2.3
2019-02-19T16:23:48.501Z,2
2019-02-19T16:25:00.793Z,1.9
2019-02-19T16:26:12.989Z,2.2
2019-02-19T16:27:25.149Z,2
2019-02-19T16:28:37.421Z,2.2
2019-02-19T16:29:49.580Z,2.2